sensor_id;sensor_type;location;lat;lon;timestamp;temperature;humidity
13976;DHT22;7062;49.792;9.946;2023-03-22T00:01:33;8.90;99.90
13976;DHT22;7062;49.792;9.946;2023-03-22T00:03:59;8.80;99.90
13976;DHT22;7062;49.792;9.946;2023-03-22T00:06:25;8.80;99.90
13976;DHT22;7062;49.792;9.946;2023-03-22T00:08:52;8.70;99.90
13976;DHT22;7062;49.792;9.946;2023-03-22T00:11:20;8.70;99.90
13976;DHT22;7062;49.792;9.946;2023-03-22T00:13:46;8.60;99.90
13976;DHT22;7062;49.792;9.946;2023-03-22T00:16:12;8.60;99.90
13976;DHT22;7062;49.792;9.946;2023-03-22T00:18:38;8.50;99.90
13976;DHT22;7062;49.792;9.946;2023-03-22T00:21:05;8.40;99.90
13976;DHT22;7062;49.792;9.946;2023-03-22T00:23:30;8.40;99.90
13976;DHT22;7062;49.792;9.946;2023-03-22T00:25:56;8.40;99.90
13976;DHT22;7062;49.792;9.946;2023-03-22T00:28:23;8.50;99.90
13976;DHT22;7062;49.792;9.946;2023-03-22T00:30:55;8.40;99.90
13976;DHT22;7062;49.792;9.946;2023-03-22T00:33:21;8.40;99.90
13976;DHT22;7062;49.792;9.946;2023-03-22T00:35:49;8.40;99.90
13976;DHT22;7062;49.792;9.946;2023-03-22T00:38:15;8.40;99.90
13976;DHT22;7062;49.792;9.946;2023-03-22T00:40:41;8.20;99.90
13976;DHT22;7062;49.792;9.946;2023-03-22T00:43:07;8.20;99.90
13976;DHT22;7062;49.792;9.946;2023-03-22T00:45:32;8.20;99.90
13976;DHT22;7062;49.792;9.946;2023-03-22T00:48:01;8.30;99.90
13976;DHT22;7062;49.792;9.946;2023-03-22T00:50:27;8.40;99.90
13976;DHT22;7062;49.792;9.946;2023-03-22T00:52:53;8.30;99.90
13976;DHT22;7062;49.792;9.946;2023-03-22T00:55:18;8.40;99.90
13976;DHT22;7062;49.792;9.946;2023-03-22T00:57:44;8.40;99.90
13976;DHT22;7062;49.792;9.946;2023-03-22T01:00:10;8.40;99.90
13976;DHT22;7062;49.792;9.946;2023-03-22T01:02:41;8.40;99.90
13976;DHT22;7062;49.792;9.946;2023-03-22T01:05:08;8.30;99.90
13976;DHT22;7062;49.792;9.946;2023-03-22T01:07:34;8.30;99.90
13976;DHT22;7062;49.792;9.946;2023-03-22T01:10:03;8.40;99.90
13976;DHT22;7062;49.792;9.946;2023-03-22T01:12:29;8.40;99.90
13976;DHT22;7062;49.792;9.946;2023-03-22T01:14:55;8.40;99.90
13976;DHT22;7062;49.792;9.946;2023-03-22T01:17:21;8.40;99.90
13976;DHT22;7062;49.792;9.946;2023-03-22T01:19:46;8.40;99.90
13976;DHT22;7062;49.792;9.946;2023-03-22T01:22:12;8.40;99.90
13976;DHT22;7062;49.792;9.946;2023-03-22T01:24:38;8.40;99.90
13976;DHT22;7062;49.792;9.946;2023-03-22T01:27:03;8.50;99.90
13976;DHT22;7062;49.792;9.946;2023-03-22T01:29:29;8.50;99.90
13976;DHT22;7062;49.792;9.946;2023-03-22T01:31:56;8.40;99.90
13976;DHT22;7062;49.792;9.946;2023-03-22T01:34:21;8.50;99.90
13976;DHT22;7062;49.792;9.946;2023-03-22T01:36:47;8.60;99.90
13976;DHT22;7062;49.792;9.946;2023-03-22T01:39:14;8.70;99.90
13976;DHT22;7062;49.792;9.946;2023-03-22T01:41:40;8.70;99.90
13976;DHT22;7062;49.792;9.946;2023-03-22T01:44:19;8.80;99.90
13976;DHT22;7062;49.792;9.946;2023-03-22T01:46:47;8.80;99.90
13976;DHT22;7062;49.792;9.946;2023-03-22T01:49:17;8.80;99.90
13976;DHT22;7062;49.792;9.946;2023-03-22T01:51:45;8.80;99.90
13976;DHT22;7062;49.792;9.946;2023-03-22T01:54:26;8.70;99.90
13976;DHT22;7062;49.792;9.946;2023-03-22T01:56:53;8.60;99.90
13976;DHT22;7062;49.792;9.946;2023-03-22T01:59:19;8.60;99.90
13976;DHT22;7062;49.792;9.946;2023-03-22T02:01:45;8.50;99.90
13976;DHT22;7062;49.792;9.946;2023-03-22T02:04:14;8.40;99.90
13976;DHT22;7062;49.792;9.946;2023-03-22T02:06:41;8.30;99.90
13976;DHT22;7062;49.792;9.946;2023-03-22T02:09:10;8.20;99.90
13976;DHT22;7062;49.792;9.946;2023-03-22T02:11:39;8.20;99.90
13976;DHT22;7062;49.792;9.946;2023-03-22T02:14:08;8.20;99.90
13976;DHT22;7062;49.792;9.946;2023-03-22T02:25:17;8.40;99.90
13976;DHT22;7062;49.792;9.946;2023-03-22T02:27:49;8.60;99.90
13976;DHT22;7062;49.792;9.946;2023-03-22T02:35:54;9.00;99.90
13976;DHT22;7062;49.792;9.946;2023-03-22T02:44:25;9.00;99.90
13976;DHT22;7062;49.792;9.946;2023-03-22T02:49:59;8.90;99.90
13976;DHT22;7062;49.792;9.946;2023-03-22T02:52:54;9.10;99.90
13976;DHT22;7062;49.792;9.946;2023-03-22T02:55:50;8.70;99.90
13976;DHT22;7062;49.792;9.946;2023-03-22T03:00:55;8.90;99.90
13976;DHT22;7062;49.792;9.946;2023-03-22T03:03:25;8.90;99.90
13976;DHT22;7062;49.792;9.946;2023-03-22T03:05:56;8.90;99.90
13976;DHT22;7062;49.792;9.946;2023-03-22T03:08:24;9.00;99.90
13976;DHT22;7062;49.792;9.946;2023-03-22T03:10:51;8.90;99.90
13976;DHT22;7062;49.792;9.946;2023-03-22T03:13:18;9.00;99.90
13976;DHT22;7062;49.792;9.946;2023-03-22T03:15:48;8.80;99.90
13976;DHT22;7062;49.792;9.946;2023-03-22T03:18:30;8.70;99.90
13976;DHT22;7062;49.792;9.946;2023-03-22T03:21:10;8.80;99.90
13976;DHT22;7062;49.792;9.946;2023-03-22T03:26:47;8.70;99.90
13976;DHT22;7062;49.792;9.946;2023-03-22T03:32:13;8.90;99.90
13976;DHT22;7062;49.792;9.946;2023-03-22T03:37:26;9.00;99.90
13976;DHT22;7062;49.792;9.946;2023-03-22T03:40:09;9.10;99.90
13976;DHT22;7062;49.792;9.946;2023-03-22T03:42:43;9.20;99.90
13976;DHT22;7062;49.792;9.946;2023-03-22T03:45:10;9.20;99.90
13976;DHT22;7062;49.792;9.946;2023-03-22T03:47:36;9.30;99.90
13976;DHT22;7062;49.792;9.946;2023-03-22T03:50:03;9.40;99.90
13976;DHT22;7062;49.792;9.946;2023-03-22T03:52:30;9.20;99.90
13976;DHT22;7062;49.792;9.946;2023-03-22T03:54:56;9.00;99.90
13976;DHT22;7062;49.792;9.946;2023-03-22T03:57:21;8.90;99.90
13976;DHT22;7062;49.792;9.946;2023-03-22T03:59:48;8.90;99.90
13976;DHT22;7062;49.792;9.946;2023-03-22T04:02:13;8.80;99.90
13976;DHT22;7062;49.792;9.946;2023-03-22T04:04:41;8.90;99.90
13976;DHT22;7062;49.792;9.946;2023-03-22T04:07:06;9.00;99.90
13976;DHT22;7062;49.792;9.946;2023-03-22T04:09:35;9.00;99.90
13976;DHT22;7062;49.792;9.946;2023-03-22T04:12:01;9.10;99.90
13976;DHT22;7062;49.792;9.946;2023-03-22T04:14:27;9.20;99.90
13976;DHT22;7062;49.792;9.946;2023-03-22T04:16:54;9.10;99.90
13976;DHT22;7062;49.792;9.946;2023-03-22T04:19:20;9.20;99.90
13976;DHT22;7062;49.792;9.946;2023-03-22T04:21:47;9.30;99.90
13976;DHT22;7062;49.792;9.946;2023-03-22T04:24:13;9.20;99.90
13976;DHT22;7062;49.792;9.946;2023-03-22T04:26:39;9.30;99.90
13976;DHT22;7062;49.792;9.946;2023-03-22T04:29:05;9.40;99.90
13976;DHT22;7062;49.792;9.946;2023-03-22T04:31:32;9.30;99.90
13976;DHT22;7062;49.792;9.946;2023-03-22T04:33:58;9.40;99.90
13976;DHT22;7062;49.792;9.946;2023-03-22T04:36:34;9.40;99.90
13976;DHT22;7062;49.792;9.946;2023-03-22T04:39:05;9.30;99.90
13976;DHT22;7062;49.792;9.946;2023-03-22T04:41:31;9.40;99.90
13976;DHT22;7062;49.792;9.946;2023-03-22T04:43:57;9.40;99.90
13976;DHT22;7062;49.792;9.946;2023-03-22T04:46:30;9.40;99.90
13976;DHT22;7062;49.792;9.946;2023-03-22T04:48:56;9.40;99.90
13976;DHT22;7062;49.792;9.946;2023-03-22T04:51:22;9.50;99.90
13976;DHT22;7062;49.792;9.946;2023-03-22T04:53:48;9.60;99.90
13976;DHT22;7062;49.792;9.946;2023-03-22T04:56:14;9.60;99.90
13976;DHT22;7062;49.792;9.946;2023-03-22T04:58:41;9.60;99.90
13976;DHT22;7062;49.792;9.946;2023-03-22T05:01:09;9.50;99.90
13976;DHT22;7062;49.792;9.946;2023-03-22T05:03:35;9.50;99.90
13976;DHT22;7062;49.792;9.946;2023-03-22T05:06:03;9.50;99.90
13976;DHT22;7062;49.792;9.946;2023-03-22T05:08:31;9.50;99.90
13976;DHT22;7062;49.792;9.946;2023-03-22T05:11:00;9.60;99.90
13976;DHT22;7062;49.792;9.946;2023-03-22T05:13:28;9.40;99.90
13976;DHT22;7062;49.792;9.946;2023-03-22T05:15:54;9.10;99.90
13976;DHT22;7062;49.792;9.946;2023-03-22T05:18:21;9.10;99.90
13976;DHT22;7062;49.792;9.946;2023-03-22T05:20:49;8.90;99.90
13976;DHT22;7062;49.792;9.946;2023-03-22T05:23:15;8.80;99.90
13976;DHT22;7062;49.792;9.946;2023-03-22T05:25:49;8.70;99.90
13976;DHT22;7062;49.792;9.946;2023-03-22T05:28:17;8.70;99.90
13976;DHT22;7062;49.792;9.946;2023-03-22T05:30:44;8.70;99.90
13976;DHT22;7062;49.792;9.946;2023-03-22T05:33:10;8.80;99.90
13976;DHT22;7062;49.792;9.946;2023-03-22T05:35:38;8.80;99.90
13976;DHT22;7062;49.792;9.946;2023-03-22T05:38:05;8.90;99.90
13976;DHT22;7062;49.792;9.946;2023-03-22T05:40:31;8.90;99.90
13976;DHT22;7062;49.792;9.946;2023-03-22T05:42:57;9.00;99.90
13976;DHT22;7062;49.792;9.946;2023-03-22T05:45:23;9.10;99.90
13976;DHT22;7062;49.792;9.946;2023-03-22T05:47:49;9.10;99.90
13976;DHT22;7062;49.792;9.946;2023-03-22T05:50:21;9.20;99.90
13976;DHT22;7062;49.792;9.946;2023-03-22T05:52:47;9.20;99.90
13976;DHT22;7062;49.792;9.946;2023-03-22T05:55:15;9.20;99.90
13976;DHT22;7062;49.792;9.946;2023-03-22T05:57:44;9.30;99.90
13976;DHT22;7062;49.792;9.946;2023-03-22T06:00:12;9.30;99.90
13976;DHT22;7062;49.792;9.946;2023-03-22T06:02:44;9.30;99.90
13976;DHT22;7062;49.792;9.946;2023-03-22T06:05:12;9.40;99.90
13976;DHT22;7062;49.792;9.946;2023-03-22T06:07:39;9.30;99.90
13976;DHT22;7062;49.792;9.946;2023-03-22T06:10:06;9.40;99.90
13976;DHT22;7062;49.792;9.946;2023-03-22T06:12:33;9.50;99.90
13976;DHT22;7062;49.792;9.946;2023-03-22T06:14:59;9.60;99.90
13976;DHT22;7062;49.792;9.946;2023-03-22T06:17:24;9.70;99.90
13976;DHT22;7062;49.792;9.946;2023-03-22T06:19:51;9.70;99.90
13976;DHT22;7062;49.792;9.946;2023-03-22T06:22:17;9.60;99.90
13976;DHT22;7062;49.792;9.946;2023-03-22T06:24:43;9.70;99.90
13976;DHT22;7062;49.792;9.946;2023-03-22T06:27:08;9.70;99.90
13976;DHT22;7062;49.792;9.946;2023-03-22T06:29:34;9.70;99.90
13976;DHT22;7062;49.792;9.946;2023-03-22T06:32:00;9.90;99.90
13976;DHT22;7062;49.792;9.946;2023-03-22T06:34:26;10.00;99.90
13976;DHT22;7062;49.792;9.946;2023-03-22T06:36:52;10.10;99.90
13976;DHT22;7062;49.792;9.946;2023-03-22T06:39:18;10.20;99.90
13976;DHT22;7062;49.792;9.946;2023-03-22T06:41:45;10.40;99.90
13976;DHT22;7062;49.792;9.946;2023-03-22T06:44:10;10.50;99.90
13976;DHT22;7062;49.792;9.946;2023-03-22T06:46:36;10.60;99.90
13976;DHT22;7062;49.792;9.946;2023-03-22T06:49:02;10.50;99.90
13976;DHT22;7062;49.792;9.946;2023-03-22T06:51:28;10.40;99.90
13976;DHT22;7062;49.792;9.946;2023-03-22T06:53:54;10.30;99.90
13976;DHT22;7062;49.792;9.946;2023-03-22T06:56:19;10.30;99.90
13976;DHT22;7062;49.792;9.946;2023-03-22T06:58:45;10.40;99.90
13976;DHT22;7062;49.792;9.946;2023-03-22T07:01:11;10.50;99.90
13976;DHT22;7062;49.792;9.946;2023-03-22T07:03:36;10.40;99.90
13976;DHT22;7062;49.792;9.946;2023-03-22T07:06:06;10.60;99.90
13976;DHT22;7062;49.792;9.946;2023-03-22T07:08:33;10.70;99.90
13976;DHT22;7062;49.792;9.946;2023-03-22T07:10:59;10.80;99.90
13976;DHT22;7062;49.792;9.946;2023-03-22T07:13:25;10.80;99.90
13976;DHT22;7062;49.792;9.946;2023-03-22T07:15:55;10.90;99.90
13976;DHT22;7062;49.792;9.946;2023-03-22T07:18:21;10.90;99.90
13976;DHT22;7062;49.792;9.946;2023-03-22T07:20:47;10.90;99.90
13976;DHT22;7062;49.792;9.946;2023-03-22T07:23:12;11.10;99.90
13976;DHT22;7062;49.792;9.946;2023-03-22T07:25:39;11.10;99.90
13976;DHT22;7062;49.792;9.946;2023-03-22T07:28:05;11.20;99.90
13976;DHT22;7062;49.792;9.946;2023-03-22T07:30:31;11.30;99.90
13976;DHT22;7062;49.792;9.946;2023-03-22T07:33:00;11.60;99.90
13976;DHT22;7062;49.792;9.946;2023-03-22T07:35:25;11.60;99.90
13976;DHT22;7062;49.792;9.946;2023-03-22T07:37:51;11.80;99.90
13976;DHT22;7062;49.792;9.946;2023-03-22T07:40:18;12.00;99.90
13976;DHT22;7062;49.792;9.946;2023-03-22T07:42:43;12.10;99.90
13976;DHT22;7062;49.792;9.946;2023-03-22T07:45:09;12.20;99.90
13976;DHT22;7062;49.792;9.946;2023-03-22T07:47:35;12.40;99.90
13976;DHT22;7062;49.792;9.946;2023-03-22T07:50:01;12.50;99.90
13976;DHT22;7062;49.792;9.946;2023-03-22T07:52:27;12.50;99.90
13976;DHT22;7062;49.792;9.946;2023-03-22T07:54:52;12.70;99.90
13976;DHT22;7062;49.792;9.946;2023-03-22T07:57:18;12.80;99.90
13976;DHT22;7062;49.792;9.946;2023-03-22T07:59:43;12.80;99.90
13976;DHT22;7062;49.792;9.946;2023-03-22T08:02:10;12.90;99.90
13976;DHT22;7062;49.792;9.946;2023-03-22T08:04:35;13.00;99.90
13976;DHT22;7062;49.792;9.946;2023-03-22T08:07:01;13.10;99.90
13976;DHT22;7062;49.792;9.946;2023-03-22T08:09:27;13.10;99.90
13976;DHT22;7062;49.792;9.946;2023-03-22T08:11:53;13.30;99.90
13976;DHT22;7062;49.792;9.946;2023-03-22T08:14:19;13.30;99.90
13976;DHT22;7062;49.792;9.946;2023-03-22T08:16:44;13.40;99.90
13976;DHT22;7062;49.792;9.946;2023-03-22T08:19:11;13.40;99.90
13976;DHT22;7062;49.792;9.946;2023-03-22T08:21:37;13.50;99.90
13976;DHT22;7062;49.792;9.946;2023-03-22T08:24:03;13.60;99.90
13976;DHT22;7062;49.792;9.946;2023-03-22T08:26:29;13.70;99.90
13976;DHT22;7062;49.792;9.946;2023-03-22T08:28:55;13.90;99.90
13976;DHT22;7062;49.792;9.946;2023-03-22T08:31:21;13.90;99.90
13976;DHT22;7062;49.792;9.946;2023-03-22T08:33:49;14.00;99.90
13976;DHT22;7062;49.792;9.946;2023-03-22T08:36:17;14.10;99.90
13976;DHT22;7062;49.792;9.946;2023-03-22T08:38:43;14.20;99.90
13976;DHT22;7062;49.792;9.946;2023-03-22T08:41:10;14.30;99.90
13976;DHT22;7062;49.792;9.946;2023-03-22T08:43:36;14.50;99.90
13976;DHT22;7062;49.792;9.946;2023-03-22T08:46:02;14.50;99.90
13976;DHT22;7062;49.792;9.946;2023-03-22T08:48:28;14.50;99.90
13976;DHT22;7062;49.792;9.946;2023-03-22T08:50:55;14.60;99.90
13976;DHT22;7062;49.792;9.946;2023-03-22T08:53:21;14.60;99.90
13976;DHT22;7062;49.792;9.946;2023-03-22T08:55:47;14.60;99.90
13976;DHT22;7062;49.792;9.946;2023-03-22T08:58:14;14.60;99.90
13976;DHT22;7062;49.792;9.946;2023-03-22T09:00:41;15.00;99.90
13976;DHT22;7062;49.792;9.946;2023-03-22T09:03:08;15.10;99.90
13976;DHT22;7062;49.792;9.946;2023-03-22T09:05:34;15.40;99.90
13976;DHT22;7062;49.792;9.946;2023-03-22T09:07:59;15.90;99.90
13976;DHT22;7062;49.792;9.946;2023-03-22T09:10:27;16.60;99.90
13976;DHT22;7062;49.792;9.946;2023-03-22T09:12:53;16.40;99.90
13976;DHT22;7062;49.792;9.946;2023-03-22T09:15:19;17.60;99.90
13976;DHT22;7062;49.792;9.946;2023-03-22T09:17:44;18.00;99.90
13976;DHT22;7062;49.792;9.946;2023-03-22T09:20:10;17.10;99.90
13976;DHT22;7062;49.792;9.946;2023-03-22T09:22:36;17.10;99.90
13976;DHT22;7062;49.792;9.946;2023-03-22T09:25:02;17.20;99.90
13976;DHT22;7062;49.792;9.946;2023-03-22T09:27:28;18.70;99.90
13976;DHT22;7062;49.792;9.946;2023-03-22T09:29:54;20.10;99.90
13976;DHT22;7062;49.792;9.946;2023-03-22T09:32:20;20.10;99.90
13976;DHT22;7062;49.792;9.946;2023-03-22T09:34:46;18.90;99.90
13976;DHT22;7062;49.792;9.946;2023-03-22T09:37:12;18.40;99.90
13976;DHT22;7062;49.792;9.946;2023-03-22T09:39:39;18.80;99.90
13976;DHT22;7062;49.792;9.946;2023-03-22T09:42:13;18.50;99.90
13976;DHT22;7062;49.792;9.946;2023-03-22T09:44:43;18.00;99.90
13976;DHT22;7062;49.792;9.946;2023-03-22T09:47:16;17.50;99.90
13976;DHT22;7062;49.792;9.946;2023-03-22T09:49:46;17.90;99.90
13976;DHT22;7062;49.792;9.946;2023-03-22T09:52:14;18.20;99.90
13976;DHT22;7062;49.792;9.946;2023-03-22T09:54:42;17.40;99.90
13976;DHT22;7062;49.792;9.946;2023-03-22T10:05:17;19.00;99.90
13976;DHT22;7062;49.792;9.946;2023-03-22T10:10:19;21.30;99.90
13976;DHT22;7062;49.792;9.946;2023-03-22T10:15:35;19.20;99.90
13976;DHT22;7062;49.792;9.946;2023-03-22T10:18:08;19.60;99.90
13976;DHT22;7062;49.792;9.946;2023-03-22T10:20:43;21.00;99.90
13976;DHT22;7062;49.792;9.946;2023-03-22T10:23:17;22.40;99.90
13976;DHT22;7062;49.792;9.946;2023-03-22T10:25:45;20.80;99.90
13976;DHT22;7062;49.792;9.946;2023-03-22T10:28:21;21.40;99.90
13976;DHT22;7062;49.792;9.946;2023-03-22T10:30:56;22.20;99.60
13976;DHT22;7062;49.792;9.946;2023-03-22T10:33:47;21.40;99.90
13976;DHT22;7062;49.792;9.946;2023-03-22T10:36:20;20.90;99.90
13976;DHT22;7062;49.792;9.946;2023-03-22T10:38:59;21.00;99.90
13976;DHT22;7062;49.792;9.946;2023-03-22T10:41:29;22.90;99.70
13976;DHT22;7062;49.792;9.946;2023-03-22T10:43:59;22.90;98.50
13976;DHT22;7062;49.792;9.946;2023-03-22T10:46:34;22.70;98.30
13976;DHT22;7062;49.792;9.946;2023-03-22T10:49:01;22.00;98.60
13976;DHT22;7062;49.792;9.946;2023-03-22T10:51:48;20.30;99.40
13976;DHT22;7062;49.792;9.946;2023-03-22T10:54:16;20.60;99.70
13976;DHT22;7062;49.792;9.946;2023-03-22T10:56:43;22.50;97.70
13976;DHT22;7062;49.792;9.946;2023-03-22T10:59:41;22.60;97.20
13976;DHT22;7062;49.792;9.946;2023-03-22T11:04:50;22.50;96.00
13976;DHT22;7062;49.792;9.946;2023-03-22T11:07:42;22.40;96.30
13976;DHT22;7062;49.792;9.946;2023-03-22T11:12:35;21.40;97.80
13976;DHT22;7062;49.792;9.946;2023-03-22T11:15:02;22.40;96.90
13976;DHT22;7062;49.792;9.946;2023-03-22T11:17:29;22.10;96.70
13976;DHT22;7062;49.792;9.946;2023-03-22T11:20:03;22.50;95.80
13976;DHT22;7062;49.792;9.946;2023-03-22T11:22:37;22.30;95.70
13976;DHT22;7062;49.792;9.946;2023-03-22T11:25:12;22.60;95.30
13976;DHT22;7062;49.792;9.946;2023-03-22T11:30:21;23.30;95.30
13976;DHT22;7062;49.792;9.946;2023-03-22T11:32:48;24.80;93.60
13976;DHT22;7062;49.792;9.946;2023-03-22T11:35:17;25.30;92.20
13976;DHT22;7062;49.792;9.946;2023-03-22T11:37:53;25.30;92.00
13976;DHT22;7062;49.792;9.946;2023-03-22T11:40:27;25.40;92.00
13976;DHT22;7062;49.792;9.946;2023-03-22T11:45:36;23.00;92.40
13976;DHT22;7062;49.792;9.946;2023-03-22T11:48:13;21.50;94.00
13976;DHT22;7062;49.792;9.946;2023-03-22T11:50:44;20.10;95.50
13976;DHT22;7062;49.792;9.946;2023-03-22T11:53:19;21.50;94.80
13976;DHT22;7062;49.792;9.946;2023-03-22T11:55:48;23.10;93.00
13976;DHT22;7062;49.792;9.946;2023-03-22T12:04:14;25.40;89.20
13976;DHT22;7062;49.792;9.946;2023-03-22T12:06:41;23.50;91.00
13976;DHT22;7062;49.792;9.946;2023-03-22T12:09:40;22.70;91.80
13976;DHT22;7062;49.792;9.946;2023-03-22T12:12:19;22.60;92.00
13976;DHT22;7062;49.792;9.946;2023-03-22T12:14:54;22.40;91.90
13976;DHT22;7062;49.792;9.946;2023-03-22T12:17:23;22.00;92.10
13976;DHT22;7062;49.792;9.946;2023-03-22T12:22:46;21.30;93.00
13976;DHT22;7062;49.792;9.946;2023-03-22T12:25:18;21.70;92.60
13976;DHT22;7062;49.792;9.946;2023-03-22T12:27:49;22.70;91.80
13976;DHT22;7062;49.792;9.946;2023-03-22T12:30:27;24.10;90.60
13976;DHT22;7062;49.792;9.946;2023-03-22T12:33:05;24.50;89.40
13976;DHT22;7062;49.792;9.946;2023-03-22T12:35:35;24.80;89.40
13976;DHT22;7062;49.792;9.946;2023-03-22T12:41:04;24.50;89.40
13976;DHT22;7062;49.792;9.946;2023-03-22T12:43:51;23.60;89.70
13976;DHT22;7062;49.792;9.946;2023-03-22T12:46:25;23.40;90.20
13976;DHT22;7062;49.792;9.946;2023-03-22T12:49:02;24.00;90.00
13976;DHT22;7062;49.792;9.946;2023-03-22T12:51:29;25.20;87.10
13976;DHT22;7062;49.792;9.946;2023-03-22T12:53:56;24.80;86.80
13976;DHT22;7062;49.792;9.946;2023-03-22T12:58:56;24.90;87.10
13976;DHT22;7062;49.792;9.946;2023-03-22T13:03:54;25.30;85.50
13976;DHT22;7062;49.792;9.946;2023-03-22T13:09:15;23.70;87.20
13976;DHT22;7062;49.792;9.946;2023-03-22T13:11:46;22.50;88.60
13976;DHT22;7062;49.792;9.946;2023-03-22T13:17:38;22.00;90.40
13976;DHT22;7062;49.792;9.946;2023-03-22T13:27:41;20.60;92.40
13976;DHT22;7062;49.792;9.946;2023-03-22T13:30:21;20.50;92.10
13976;DHT22;7062;49.792;9.946;2023-03-22T13:32:58;20.90;91.80
13976;DHT22;7062;49.792;9.946;2023-03-22T13:35:45;22.70;90.20
13976;DHT22;7062;49.792;9.946;2023-03-22T13:38:33;25.10;86.40
13976;DHT22;7062;49.792;9.946;2023-03-22T13:41:05;26.00;83.90
13976;DHT22;7062;49.792;9.946;2023-03-22T13:46:08;26.10;82.30
13976;DHT22;7062;49.792;9.946;2023-03-22T13:48:42;25.80;81.80
13976;DHT22;7062;49.792;9.946;2023-03-22T13:56:48;25.40;80.40
13976;DHT22;7062;49.792;9.946;2023-03-22T14:04:48;22.40;85.90
13976;DHT22;7062;49.792;9.946;2023-03-22T14:12:56;20.80;89.30
13976;DHT22;7062;49.792;9.946;2023-03-22T14:15:30;20.70;89.90
13976;DHT22;7062;49.792;9.946;2023-03-22T14:18:30;21.10;89.70
13976;DHT22;7062;49.792;9.946;2023-03-22T14:21:02;20.50;90.00
13976;DHT22;7062;49.792;9.946;2023-03-22T14:23:33;20.10;90.70
13976;DHT22;7062;49.792;9.946;2023-03-22T14:28:38;19.80;91.30
13976;DHT22;7062;49.792;9.946;2023-03-22T14:31:18;19.80;91.50
13976;DHT22;7062;49.792;9.946;2023-03-22T14:33:45;19.80;91.00
13976;DHT22;7062;49.792;9.946;2023-03-22T14:36:13;19.90;90.80
13976;DHT22;7062;49.792;9.946;2023-03-22T14:38:41;20.00;90.80
13976;DHT22;7062;49.792;9.946;2023-03-22T14:41:12;19.90;91.20
13976;DHT22;7062;49.792;9.946;2023-03-22T14:43:39;19.80;91.30
13976;DHT22;7062;49.792;9.946;2023-03-22T14:46:16;19.40;91.70
13976;DHT22;7062;49.792;9.946;2023-03-22T14:48:56;19.40;91.90
13976;DHT22;7062;49.792;9.946;2023-03-22T14:51:28;19.80;91.70
13976;DHT22;7062;49.792;9.946;2023-03-22T14:53:56;20.20;91.30
13976;DHT22;7062;49.792;9.946;2023-03-22T14:56:27;20.50;91.30
13976;DHT22;7062;49.792;9.946;2023-03-22T14:58:56;21.10;90.70
13976;DHT22;7062;49.792;9.946;2023-03-22T15:01:27;21.50;90.20
13976;DHT22;7062;49.792;9.946;2023-03-22T15:03:57;22.00;89.70
13976;DHT22;7062;49.792;9.946;2023-03-22T15:06:27;22.40;89.10
13976;DHT22;7062;49.792;9.946;2023-03-22T15:08:54;22.40;87.90
13976;DHT22;7062;49.792;9.946;2023-03-22T15:11:21;22.50;88.20
13976;DHT22;7062;49.792;9.946;2023-03-22T15:13:47;22.60;88.00
13976;DHT22;7062;49.792;9.946;2023-03-22T15:16:18;22.50;88.00
13976;DHT22;7062;49.792;9.946;2023-03-22T15:18:45;21.80;88.90
13976;DHT22;7062;49.792;9.946;2023-03-22T15:21:11;21.70;89.10
13976;DHT22;7062;49.792;9.946;2023-03-22T15:23:39;21.90;88.70
13976;DHT22;7062;49.792;9.946;2023-03-22T15:26:16;21.20;90.00
13976;DHT22;7062;49.792;9.946;2023-03-22T15:28:45;20.90;90.10
13976;DHT22;7062;49.792;9.946;2023-03-22T15:31:32;20.60;90.10
13976;DHT22;7062;49.792;9.946;2023-03-22T15:34:03;19.90;90.80
13976;DHT22;7062;49.792;9.946;2023-03-22T15:36:32;19.70;91.40
13976;DHT22;7062;49.792;9.946;2023-03-22T15:39:04;19.70;91.00
13976;DHT22;7062;49.792;9.946;2023-03-22T15:41:35;20.20;90.50
13976;DHT22;7062;49.792;9.946;2023-03-22T15:46:59;20.20;90.50
13976;DHT22;7062;49.792;9.946;2023-03-22T15:49:39;21.00;89.90
13976;DHT22;7062;49.792;9.946;2023-03-22T15:52:25;20.80;89.00
13976;DHT22;7062;49.792;9.946;2023-03-22T16:03:00;20.60;90.10
13976;DHT22;7062;49.792;9.946;2023-03-22T16:05:34;20.80;90.00
13976;DHT22;7062;49.792;9.946;2023-03-22T16:08:01;21.30;89.70
13976;DHT22;7062;49.792;9.946;2023-03-22T16:10:30;21.10;88.90
13976;DHT22;7062;49.792;9.946;2023-03-22T16:12:56;21.00;89.70
13976;DHT22;7062;49.792;9.946;2023-03-22T16:15:31;20.90;89.30
13976;DHT22;7062;49.792;9.946;2023-03-22T16:17:57;21.30;89.10
13976;DHT22;7062;49.792;9.946;2023-03-22T16:20:24;20.40;89.50
13976;DHT22;7062;49.792;9.946;2023-03-22T16:22:57;20.20;90.10
13976;DHT22;7062;49.792;9.946;2023-03-22T16:25:23;19.80;90.30
13976;DHT22;7062;49.792;9.946;2023-03-22T16:27:50;19.50;90.80
13976;DHT22;7062;49.792;9.946;2023-03-22T16:30:16;19.30;91.20
13976;DHT22;7062;49.792;9.946;2023-03-22T16:32:43;19.20;91.30
13976;DHT22;7062;49.792;9.946;2023-03-22T16:35:22;19.10;91.40
13976;DHT22;7062;49.792;9.946;2023-03-22T16:37:48;18.80;91.40
13976;DHT22;7062;49.792;9.946;2023-03-22T16:40:20;18.60;91.50
13976;DHT22;7062;49.792;9.946;2023-03-22T16:42:46;18.50;91.80
13976;DHT22;7062;49.792;9.946;2023-03-22T16:45:22;18.40;91.90
13976;DHT22;7062;49.792;9.946;2023-03-22T16:47:48;18.40;91.90
13976;DHT22;7062;49.792;9.946;2023-03-22T16:50:15;18.40;92.00
13976;DHT22;7062;49.792;9.946;2023-03-22T16:52:40;18.30;92.10
13976;DHT22;7062;49.792;9.946;2023-03-22T16:55:33;18.20;92.30
13976;DHT22;7062;49.792;9.946;2023-03-22T16:57:59;18.10;92.40
13976;DHT22;7062;49.792;9.946;2023-03-22T17:00:25;18.00;92.50
13976;DHT22;7062;49.792;9.946;2023-03-22T17:02:53;17.90;92.70
13976;DHT22;7062;49.792;9.946;2023-03-22T17:05:21;17.80;92.90
13976;DHT22;7062;49.792;9.946;2023-03-22T17:07:48;17.80;93.10
13976;DHT22;7062;49.792;9.946;2023-03-22T17:10:14;17.70;93.40
13976;DHT22;7062;49.792;9.946;2023-03-22T17:12:41;17.60;93.50
13976;DHT22;7062;49.792;9.946;2023-03-22T17:15:30;17.60;93.70
13976;DHT22;7062;49.792;9.946;2023-03-22T17:17:57;17.50;93.90
13976;DHT22;7062;49.792;9.946;2023-03-22T17:20:24;17.50;94.00
13976;DHT22;7062;49.792;9.946;2023-03-22T17:22:51;17.40;94.30
13976;DHT22;7062;49.792;9.946;2023-03-22T17:25:20;17.40;94.50
13976;DHT22;7062;49.792;9.946;2023-03-22T17:27:46;17.30;94.70
13976;DHT22;7062;49.792;9.946;2023-03-22T17:30:12;17.30;94.90
13976;DHT22;7062;49.792;9.946;2023-03-22T17:32:38;17.30;95.10
13976;DHT22;7062;49.792;9.946;2023-03-22T17:35:05;17.30;95.20
13976;DHT22;7062;49.792;9.946;2023-03-22T17:37:31;17.30;95.40
13976;DHT22;7062;49.792;9.946;2023-03-22T17:39:57;17.20;95.60
13976;DHT22;7062;49.792;9.946;2023-03-22T17:42:23;17.20;95.70
13976;DHT22;7062;49.792;9.946;2023-03-22T17:44:49;17.10;95.80
13976;DHT22;7062;49.792;9.946;2023-03-22T17:47:14;17.10;95.90
13976;DHT22;7062;49.792;9.946;2023-03-22T17:49:40;17.10;96.10
13976;DHT22;7062;49.792;9.946;2023-03-22T17:52:08;17.10;96.20
13976;DHT22;7062;49.792;9.946;2023-03-22T17:54:35;17.00;96.30
13976;DHT22;7062;49.792;9.946;2023-03-22T17:57:01;17.10;96.40
13976;DHT22;7062;49.792;9.946;2023-03-22T17:59:27;17.00;96.50
13976;DHT22;7062;49.792;9.946;2023-03-22T18:01:54;17.00;96.60
13976;DHT22;7062;49.792;9.946;2023-03-22T18:04:20;17.00;96.70
13976;DHT22;7062;49.792;9.946;2023-03-22T18:06:46;17.00;96.80